sensor_id;sensor_type;location;lat;lon;timestamp;pressure;altitude;pressure_sealevel;temperature;humidity
46211;BME280;52144;48.040;-1.594;2023-02-28T00:00:56;102258.38;;;3.49;70.58
46211;BME280;52144;48.040;-1.594;2023-02-28T00:03:23;102253.16;;;3.59;70.12
46211;BME280;52144;48.040;-1.594;2023-02-28T00:05:51;102264.81;;;3.92;68.29
46211;BME280;52144;48.040;-1.594;2023-02-28T00:08:19;102249.72;;;3.70;69.35
46211;BME280;52144;48.040;-1.594;2023-02-28T00:10:47;102253.41;;;3.92;67.54
46211;BME280;52144;48.040;-1.594;2023-02-28T00:13:14;102251.69;;;4.00;66.91
46211;BME280;52144;48.040;-1.594;2023-02-28T00:15:43;102256.91;;;3.92;67.61
46211;BME280;52144;48.040;-1.594;2023-02-28T00:18:13;102252.53;;;3.91;67.90
46211;BME280;52144;48.040;-1.594;2023-02-28T00:20:40;102254.16;;;3.71;69.14
46211;BME280;52144;48.040;-1.594;2023-02-28T00:23:08;102260.41;;;3.88;67.24
46211;BME280;52144;48.040;-1.594;2023-02-28T00:25:36;102254.16;;;3.74;68.50
46211;BME280;52144;48.040;-1.594;2023-02-28T00:28:04;102255.97;;;3.84;67.64
46211;BME280;52144;48.040;-1.594;2023-02-28T00:30:32;102256.84;;;3.80;67.56
46211;BME280;52144;48.040;-1.594;2023-02-28T00:32:59;102268.13;;;3.60;68.21
46211;BME280;52144;48.040;-1.594;2023-02-28T00:35:29;102258.50;;;3.70;68.41
46211;BME280;52144;48.040;-1.594;2023-02-28T00:37:56;102262.88;;;3.64;68.29
46211;BME280;52144;48.040;-1.594;2023-02-28T00:40:24;102268.09;;;3.57;68.90
46211;BME280;52144;48.040;-1.594;2023-02-28T00:42:52;102259.28;;;3.52;69.54
46211;BME280;52144;48.040;-1.594;2023-02-28T00:45:20;102268.19;;;3.70;68.44
46211;BME280;52144;48.040;-1.594;2023-02-28T00:47:48;102267.25;;;3.63;68.48
46211;BME280;52144;48.040;-1.594;2023-02-28T00:50:17;102268.00;;;3.45;69.44
46211;BME280;52144;48.040;-1.594;2023-02-28T00:52:46;102265.22;;;3.31;70.84
46211;BME280;52144;48.040;-1.594;2023-02-28T00:55:14;102262.50;;;3.20;70.83
46211;BME280;52144;48.040;-1.594;2023-02-28T00:57:42;102264.25;;;3.18;71.07
46211;BME280;52144;48.040;-1.594;2023-02-28T01:00:11;102269.56;;;3.25;71.32
46211;BME280;52144;48.040;-1.594;2023-02-28T01:02:39;102266.78;;;3.09;71.48
46211;BME280;52144;48.040;-1.594;2023-02-28T01:05:08;102261.88;;;3.46;70.42
46211;BME280;52144;48.040;-1.594;2023-02-28T01:07:35;102269.78;;;3.48;70.19
46211;BME280;52144;48.040;-1.594;2023-02-28T01:10:07;102268.84;;;3.38;70.80
46211;BME280;52144;48.040;-1.594;2023-02-28T01:12:35;102269.78;;;3.49;68.90
46211;BME280;52144;48.040;-1.594;2023-02-28T01:15:04;102279.53;;;3.59;68.32
46211;BME280;52144;48.040;-1.594;2023-02-28T01:17:32;102282.00;;;3.36;68.55
46211;BME280;52144;48.040;-1.594;2023-02-28T01:20:00;102281.03;;;3.31;71.31
46211;BME280;52144;48.040;-1.594;2023-02-28T01:22:28;102283.81;;;3.45;70.24
46211;BME280;52144;48.040;-1.594;2023-02-28T01:24:56;102276.75;;;3.38;70.47
46211;BME280;52144;48.040;-1.594;2023-02-28T01:27:25;102280.41;;;3.58;69.27
46211;BME280;52144;48.040;-1.594;2023-02-28T01:29:53;102288.84;;;3.20;71.03
46211;BME280;52144;48.040;-1.594;2023-02-28T01:32:21;102283.75;;;3.39;70.09
46211;BME280;52144;48.040;-1.594;2023-02-28T01:34:48;102282.09;;;3.49;69.15
46211;BME280;52144;48.040;-1.594;2023-02-28T01:37:16;102281.03;;;3.31;69.67
46211;BME280;52144;48.040;-1.594;2023-02-28T01:39:44;102287.06;;;3.16;70.85
46211;BME280;52144;48.040;-1.594;2023-02-28T01:42:12;102288.16;;;2.56;73.80
46211;BME280;52144;48.040;-1.594;2023-02-28T01:45:03;102292.13;;;2.96;73.24
46211;BME280;52144;48.040;-1.594;2023-02-28T01:47:36;102287.84;;;3.09;71.01
46211;BME280;52144;48.040;-1.594;2023-02-28T01:50:11;102294.03;;;3.11;71.64
46211;BME280;52144;48.040;-1.594;2023-02-28T01:52:41;102292.16;;;3.01;71.82
46211;BME280;52144;48.040;-1.594;2023-02-28T01:55:10;102293.38;;;2.53;74.29
46211;BME280;52144;48.040;-1.594;2023-02-28T01:57:43;102295.03;;;2.45;75.35
46211;BME280;52144;48.040;-1.594;2023-02-28T02:00:15;102294.31;;;2.58;75.06
46211;BME280;52144;48.040;-1.594;2023-02-28T02:02:45;102288.28;;;2.65;74.04
46211;BME280;52144;48.040;-1.594;2023-02-28T02:05:16;102283.88;;;2.63;74.34
46211;BME280;52144;48.040;-1.594;2023-02-28T02:07:48;102279.69;;;2.81;73.52
46211;BME280;52144;48.040;-1.594;2023-02-28T02:10:19;102285.09;;;2.97;72.65
46211;BME280;52144;48.040;-1.594;2023-02-28T02:13:16;102284.34;;;3.06;71.25
46211;BME280;52144;48.040;-1.594;2023-02-28T02:15:56;102287.06;;;3.19;70.93
46211;BME280;52144;48.040;-1.594;2023-02-28T02:18:33;102293.16;;;3.12;71.13
46211;BME280;52144;48.040;-1.594;2023-02-28T02:21:22;102291.38;;;3.11;70.95
46211;BME280;52144;48.040;-1.594;2023-02-28T02:26:55;102293.97;;;3.04;71.61
46211;BME280;52144;48.040;-1.594;2023-02-28T02:30:02;102295.69;;;3.03;71.55
46211;BME280;52144;48.040;-1.594;2023-02-28T02:33:10;102292.97;;;2.92;71.78
46211;BME280;52144;48.040;-1.594;2023-02-28T02:35:48;102295.34;;;2.72;72.93
46211;BME280;52144;48.040;-1.594;2023-02-28T02:38:29;102302.38;;;2.69;73.21
46211;BME280;52144;48.040;-1.594;2023-02-28T02:41:04;102291.81;;;2.70;73.24
46211;BME280;52144;48.040;-1.594;2023-02-28T02:43:39;102284.13;;;2.86;72.02
46211;BME280;52144;48.040;-1.594;2023-02-28T02:46:12;102290.34;;;2.94;71.85
46211;BME280;52144;48.040;-1.594;2023-02-28T02:48:44;102277.84;;;2.73;72.81
46211;BME280;52144;48.040;-1.594;2023-02-28T02:51:16;102286.69;;;2.79;73.00
46211;BME280;52144;48.040;-1.594;2023-02-28T02:53:48;102288.44;;;2.79;73.52
46211;BME280;52144;48.040;-1.594;2023-02-28T02:56:20;102297.00;;;2.61;73.86
46211;BME280;52144;48.040;-1.594;2023-02-28T02:58:51;102285.38;;;2.45;73.44
46211;BME280;52144;48.040;-1.594;2023-02-28T03:01:24;102283.38;;;2.24;75.62
46211;BME280;52144;48.040;-1.594;2023-02-28T03:03:57;102291.59;;;2.52;74.80
46211;BME280;52144;48.040;-1.594;2023-02-28T03:06:27;102286.06;;;2.32;76.80
46211;BME280;52144;48.040;-1.594;2023-02-28T03:08:55;102290.41;;;2.27;76.74
46211;BME280;52144;48.040;-1.594;2023-02-28T03:11:23;102295.56;;;2.19;76.53
46211;BME280;52144;48.040;-1.594;2023-02-28T03:14:09;102291.34;;;2.30;75.82
46211;BME280;52144;48.040;-1.594;2023-02-28T03:16:52;102292.84;;;2.13;76.16
46211;BME280;52144;48.040;-1.594;2023-02-28T03:19:34;102282.00;;;1.91;77.29
46211;BME280;52144;48.040;-1.594;2023-02-28T03:22:33;102290.13;;;2.07;77.10
46211;BME280;52144;48.040;-1.594;2023-02-28T03:25:10;102285.00;;;2.16;76.62
46211;BME280;52144;48.040;-1.594;2023-02-28T03:27:41;102283.38;;;2.26;75.78
46211;BME280;52144;48.040;-1.594;2023-02-28T03:30:17;102280.66;;;2.18;76.05
46211;BME280;52144;48.040;-1.594;2023-02-28T03:32:53;102285.09;;;2.22;75.77
46211;BME280;52144;48.040;-1.594;2023-02-28T03:35:23;102290.31;;;2.19;76.51
46211;BME280;52144;48.040;-1.594;2023-02-28T03:38:00;102291.34;;;2.30;75.90
46211;BME280;52144;48.040;-1.594;2023-02-28T03:40:32;102294.00;;;2.33;75.67
46211;BME280;52144;48.040;-1.594;2023-02-28T03:43:07;102288.75;;;2.33;75.19
46211;BME280;52144;48.040;-1.594;2023-02-28T03:45:39;102291.97;;;2.12;76.04
46211;BME280;52144;48.040;-1.594;2023-02-28T03:48:12;102281.25;;;1.98;76.76
46211;BME280;52144;48.040;-1.594;2023-02-28T03:50:43;102285.84;;;2.15;77.11
46211;BME280;52144;48.040;-1.594;2023-02-28T03:53:16;102285.84;;;2.15;76.38
46211;BME280;52144;48.040;-1.594;2023-02-28T03:55:48;102287.91;;;2.34;74.73
46211;BME280;52144;48.040;-1.594;2023-02-28T03:58:24;102284.50;;;2.45;73.59
46211;BME280;52144;48.040;-1.594;2023-02-28T04:00:56;102283.47;;;2.33;73.22
46211;BME280;52144;48.040;-1.594;2023-02-28T04:03:25;102276.63;;;2.45;73.85
46211;BME280;52144;48.040;-1.594;2023-02-28T04:05:54;102282.78;;;2.47;73.47
46211;BME280;52144;48.040;-1.594;2023-02-28T04:08:24;102285.38;;;2.45;73.54
46211;BME280;52144;48.040;-1.594;2023-02-28T04:10:55;102285.41;;;2.48;73.95
46211;BME280;52144;48.040;-1.594;2023-02-28T04:13:25;102292.50;;;2.54;73.85
46211;BME280;52144;48.040;-1.594;2023-02-28T04:15:53;102288.16;;;2.56;73.21
46211;BME280;52144;48.040;-1.594;2023-02-28T04:18:21;102285.41;;;2.48;73.14
46211;BME280;52144;48.040;-1.594;2023-02-28T04:20:49;102288.84;;;2.41;74.02
46211;BME280;52144;48.040;-1.594;2023-02-28T04:23:16;102289.53;;;2.26;75.36
46211;BME280;52144;48.040;-1.594;2023-02-28T04:25:45;102294.75;;;2.23;74.68
46211;BME280;52144;48.040;-1.594;2023-02-28T04:28:13;102294.81;;;2.26;74.50
46211;BME280;52144;48.040;-1.594;2023-02-28T04:30:41;102296.47;;;2.21;74.81
46211;BME280;52144;48.040;-1.594;2023-02-28T04:33:09;102293.97;;;2.30;74.59
46211;BME280;52144;48.040;-1.594;2023-02-28T04:35:36;102300.97;;;2.30;75.22
46211;BME280;52144;48.040;-1.594;2023-02-28T04:38:04;102304.56;;;2.35;74.44
46211;BME280;52144;48.040;-1.594;2023-02-28T04:40:32;102311.56;;;2.34;74.03
46211;BME280;52144;48.040;-1.594;2023-02-28T04:43:01;102302.78;;;2.34;73.84
46211;BME280;52144;48.040;-1.594;2023-02-28T04:45:30;102303.53;;;2.25;74.25
46211;BME280;52144;48.040;-1.594;2023-02-28T04:48:00;102309.72;;;2.29;73.87
46211;BME280;52144;48.040;-1.594;2023-02-28T04:50:28;102308.88;;;2.31;75.04
46211;BME280;52144;48.040;-1.594;2023-02-28T04:52:56;102312.38;;;2.30;74.23
46211;BME280;52144;48.040;-1.594;2023-02-28T04:55:24;102316.47;;;2.11;74.92
46211;BME280;52144;48.040;-1.594;2023-02-28T04:57:52;102323.78;;;2.31;74.74
46211;BME280;52144;48.040;-1.594;2023-02-28T05:00:21;102320.41;;;2.41;74.34
46211;BME280;52144;48.040;-1.594;2023-02-28T05:02:49;102328.16;;;2.29;73.93
46211;BME280;52144;48.040;-1.594;2023-02-28T05:05:17;102329.84;;;2.25;74.97
46211;BME280;52144;48.040;-1.594;2023-02-28T05:07:45;102328.00;;;2.18;75.12
46211;BME280;52144;48.040;-1.594;2023-02-28T05:10:13;102327.81;;;2.07;75.98
46211;BME280;52144;48.040;-1.594;2023-02-28T05:12:41;102328.19;;;2.30;74.02
46211;BME280;52144;48.040;-1.594;2023-02-28T05:15:12;102327.00;;;2.11;74.48
46211;BME280;52144;48.040;-1.594;2023-02-28T05:17:42;102339.91;;;1.94;74.89
46211;BME280;52144;48.040;-1.594;2023-02-28T05:20:11;102333.81;;;1.97;75.43
46211;BME280;52144;48.040;-1.594;2023-02-28T05:22:41;102337.34;;;1.99;75.03
46211;BME280;52144;48.040;-1.594;2023-02-28T05:25:11;102342.50;;;1.93;76.06
46211;BME280;52144;48.040;-1.594;2023-02-28T05:27:40;102341.25;;;1.71;76.76
46211;BME280;52144;48.040;-1.594;2023-02-28T05:30:09;102345.00;;;1.85;76.37
46211;BME280;52144;48.040;-1.594;2023-02-28T05:32:38;102339.94;;;1.96;75.42
46211;BME280;52144;48.040;-1.594;2023-02-28T05:35:10;102351.38;;;1.98;74.74
46211;BME280;52144;48.040;-1.594;2023-02-28T05:37:38;102338.03;;;1.87;75.10
46211;BME280;52144;48.040;-1.594;2023-02-28T05:40:08;102341.78;;;2.02;75.14
46211;BME280;52144;48.040;-1.594;2023-02-28T05:42:37;102351.47;;;2.04;75.23
46211;BME280;52144;48.040;-1.594;2023-02-28T05:45:06;102352.31;;;2.02;74.46
46211;BME280;52144;48.040;-1.594;2023-02-28T05:47:34;102359.31;;;2.03;75.33
46211;BME280;52144;48.040;-1.594;2023-02-28T05:50:03;102361.72;;;1.89;75.77
46211;BME280;52144;48.040;-1.594;2023-02-28T05:52:32;102366.09;;;1.88;76.64
46211;BME280;52144;48.040;-1.594;2023-02-28T05:55:00;102361.47;;;1.73;76.11
46211;BME280;52144;48.040;-1.594;2023-02-28T05:57:28;102375.06;;;1.49;77.96
46211;BME280;52144;48.040;-1.594;2023-02-28T05:59:55;102375.47;;;1.72;76.91
46211;BME280;52144;48.040;-1.594;2023-02-28T06:02:23;102370.47;;;1.89;75.78
46211;BME280;52144;48.040;-1.594;2023-02-28T06:04:51;102370.69;;;2.00;74.85
46211;BME280;52144;48.040;-1.594;2023-02-28T06:07:18;102375.75;;;1.89;75.47
46211;BME280;52144;48.040;-1.594;2023-02-28T06:09:50;102375.28;;;2.15;73.67
46211;BME280;52144;48.040;-1.594;2023-02-28T06:12:17;102372.41;;;1.98;74.02
46211;BME280;52144;48.040;-1.594;2023-02-28T06:14:45;102382.25;;;2.13;73.58
46211;BME280;52144;48.040;-1.594;2023-02-28T06:17:13;102376.22;;;2.18;73.98
46211;BME280;52144;48.040;-1.594;2023-02-28T06:19:41;102377.25;;;2.28;73.90
46211;BME280;52144;48.040;-1.594;2023-02-28T06:22:09;102370.03;;;2.15;72.56
46211;BME280;52144;48.040;-1.594;2023-02-28T06:24:36;102370.34;;;2.36;72.10
46211;BME280;52144;48.040;-1.594;2023-02-28T06:27:05;102367.56;;;2.27;72.12
46211;BME280;52144;48.040;-1.594;2023-02-28T06:29:34;102374.44;;;2.17;74.04
46211;BME280;52144;48.040;-1.594;2023-02-28T06:32:02;102373.38;;;2.05;74.34
46211;BME280;52144;48.040;-1.594;2023-02-28T06:34:30;102380.56;;;2.16;73.57
46211;BME280;52144;48.040;-1.594;2023-02-28T06:36:58;102372.41;;;1.98;73.92
46211;BME280;52144;48.040;-1.594;2023-02-28T06:39:28;102371.25;;;1.82;74.12
46211;BME280;52144;48.040;-1.594;2023-02-28T06:41:56;102377.56;;;1.93;75.16
46211;BME280;52144;48.040;-1.594;2023-02-28T06:44:26;102367.03;;;1.92;74.52
46211;BME280;52144;48.040;-1.594;2023-02-28T06:46:53;102372.44;;;2.01;74.07
46211;BME280;52144;48.040;-1.594;2023-02-28T06:49:21;102373.28;;;1.98;74.49
46211;BME280;52144;48.040;-1.594;2023-02-28T06:51:49;102381.28;;;2.06;74.43
46211;BME280;52144;48.040;-1.594;2023-02-28T06:54:16;102382.25;;;2.13;73.26
46211;BME280;52144;48.040;-1.594;2023-02-28T06:56:44;102393.75;;;2.19;72.82
46211;BME280;52144;48.040;-1.594;2023-02-28T06:59:13;102384.31;;;2.32;73.42
46211;BME280;52144;48.040;-1.594;2023-02-28T07:01:42;102388.41;;;2.13;72.58
46211;BME280;52144;48.040;-1.594;2023-02-28T07:04:10;102389.31;;;2.14;72.94
46211;BME280;52144;48.040;-1.594;2023-02-28T07:06:39;102394.75;;;2.26;71.45
46211;BME280;52144;48.040;-1.594;2023-02-28T07:09:07;102402.72;;;2.31;71.61
46211;BME280;52144;48.040;-1.594;2023-02-28T07:11:35;102399.38;;;2.44;71.79
46211;BME280;52144;48.040;-1.594;2023-02-28T07:14:03;102397.66;;;2.45;71.89
46211;BME280;52144;48.040;-1.594;2023-02-28T07:16:31;102408.03;;;2.35;72.42
46211;BME280;52144;48.040;-1.594;2023-02-28T07:19:00;102402.66;;;2.26;71.49
46211;BME280;52144;48.040;-1.594;2023-02-28T07:21:28;102415.00;;;2.30;71.48
46211;BME280;52144;48.040;-1.594;2023-02-28T07:23:56;102415.94;;;2.35;71.62
46211;BME280;52144;48.040;-1.594;2023-02-28T07:26:24;102414.81;;;2.21;72.82
46211;BME280;52144;48.040;-1.594;2023-02-28T07:28:52;102419.75;;;2.01;73.62
46211;BME280;52144;48.040;-1.594;2023-02-28T07:31:20;102430.13;;;1.92;74.09
46211;BME280;52144;48.040;-1.594;2023-02-28T07:33:48;102424.00;;;1.93;74.19
46211;BME280;52144;48.040;-1.594;2023-02-28T07:36:17;102429.31;;;1.94;74.66
46211;BME280;52144;48.040;-1.594;2023-02-28T07:38:47;102426.50;;;1.84;75.29
46211;BME280;52144;48.040;-1.594;2023-02-28T07:41:17;102437.91;;;1.86;75.67
46211;BME280;52144;48.040;-1.594;2023-02-28T07:43:45;102433.78;;;2.00;74.28
46211;BME280;52144;48.040;-1.594;2023-02-28T07:46:15;102451.41;;;2.07;74.09
46211;BME280;52144;48.040;-1.594;2023-02-28T07:48:44;102448.91;;;2.15;73.81
46211;BME280;52144;48.040;-1.594;2023-02-28T07:51:12;102449.09;;;2.24;73.23
46211;BME280;52144;48.040;-1.594;2023-02-28T07:53:41;102446.75;;;2.44;73.25
46211;BME280;52144;48.040;-1.594;2023-02-28T07:56:09;102460.28;;;2.12;75.45
46211;BME280;52144;48.040;-1.594;2023-02-28T07:58:38;102459.53;;;2.21;75.14
46211;BME280;52144;48.040;-1.594;2023-02-28T08:01:06;102453.72;;;2.40;74.78
46211;BME280;52144;48.040;-1.594;2023-02-28T08:03:35;102456.75;;;2.10;75.99
46211;BME280;52144;48.040;-1.594;2023-02-28T08:06:03;102459.72;;;2.30;76.56
46211;BME280;52144;48.040;-1.594;2023-02-28T08:08:32;102460.78;;;2.43;75.81
46211;BME280;52144;48.040;-1.594;2023-02-28T08:11:02;102463.81;;;2.69;73.51
46211;BME280;52144;48.040;-1.594;2023-02-28T08:13:30;102467.78;;;2.44;74.57
46211;BME280;52144;48.040;-1.594;2023-02-28T08:15:58;102473.06;;;3.04;72.99
46211;BME280;52144;48.040;-1.594;2023-02-28T08:18:25;102467.28;;;2.68;74.45
46211;BME280;52144;48.040;-1.594;2023-02-28T08:20:53;102462.25;;;2.84;72.87
46211;BME280;52144;48.040;-1.594;2023-02-28T08:23:21;102465.91;;;2.95;72.84
46211;BME280;52144;48.040;-1.594;2023-02-28T08:25:53;102465.97;;;2.98;72.67
46211;BME280;52144;48.040;-1.594;2023-02-28T08:28:23;102463.63;;;3.22;72.41
46211;BME280;52144;48.040;-1.594;2023-02-28T08:30:53;102462.28;;;2.87;73.16
46211;BME280;52144;48.040;-1.594;2023-02-28T08:33:21;102474.88;;;3.08;72.49
46211;BME280;52144;48.040;-1.594;2023-02-28T08:35:52;102474.91;;;3.11;72.98
46211;BME280;52144;48.040;-1.594;2023-02-28T08:38:21;102475.94;;;3.22;72.02
46211;BME280;52144;48.040;-1.594;2023-02-28T08:40:48;102470.97;;;3.50;71.22
46211;BME280;52144;48.040;-1.594;2023-02-28T08:43:16;102470.84;;;3.36;71.59
46211;BME280;52144;48.040;-1.594;2023-02-28T08:45:46;102472.03;;;3.63;71.28
46211;BME280;52144;48.040;-1.594;2023-02-28T08:48:14;102469.63;;;3.89;70.05
46211;BME280;52144;48.040;-1.594;2023-02-28T08:50:45;102466.34;;;4.14;69.33
46211;BME280;52144;48.040;-1.594;2023-02-28T08:53:30;102468.91;;;4.04;69.45
46211;BME280;52144;48.040;-1.594;2023-02-28T08:55:59;102465.53;;;4.20;68.48
46211;BME280;52144;48.040;-1.594;2023-02-28T08:58:27;102474.31;;;4.19;67.94
46211;BME280;52144;48.040;-1.594;2023-02-28T09:00:57;102463.69;;;4.13;66.83
46211;BME280;52144;48.040;-1.594;2023-02-28T09:03:25;102460.34;;;4.35;67.03
46211;BME280;52144;48.040;-1.594;2023-02-28T09:05:58;102467.44;;;4.39;65.50
46211;BME280;52144;48.040;-1.594;2023-02-28T09:08:29;102462.09;;;4.30;64.82
46211;BME280;52144;48.040;-1.594;2023-02-28T09:10:57;102463.94;;;4.42;65.15
46211;BME280;52144;48.040;-1.594;2023-02-28T09:13:28;102462.34;;;4.67;64.94
46211;BME280;52144;48.040;-1.594;2023-02-28T09:15:59;102475.56;;;4.69;64.64
46211;BME280;52144;48.040;-1.594;2023-02-28T09:18:27;102478.31;;;4.82;64.20
46211;BME280;52144;48.040;-1.594;2023-02-28T09:20:57;102474.81;;;4.90;63.36
46211;BME280;52144;48.040;-1.594;2023-02-28T09:23:25;102477.50;;;4.97;62.85
46211;BME280;52144;48.040;-1.594;2023-02-28T09:25:54;102478.41;;;5.09;62.42
46211;BME280;52144;48.040;-1.594;2023-02-28T09:28:22;102475.84;;;5.19;60.51
46211;BME280;52144;48.040;-1.594;2023-02-28T09:30:53;102476.66;;;5.06;59.80
46211;BME280;52144;48.040;-1.594;2023-02-28T09:33:23;102474.91;;;5.13;59.61
46211;BME280;52144;48.040;-1.594;2023-02-28T09:35:51;102473.97;;;4.97;58.27
46211;BME280;52144;48.040;-1.594;2023-02-28T09:38:24;102483.88;;;5.44;58.05
46211;BME280;52144;48.040;-1.594;2023-02-28T09:40:54;102475.03;;;5.39;57.63
46211;BME280;52144;48.040;-1.594;2023-02-28T09:43:26;102476.88;;;5.68;57.62
46211;BME280;52144;48.040;-1.594;2023-02-28T09:45:59;102471.59;;;5.68;56.13
46211;BME280;52144;48.040;-1.594;2023-02-28T09:48:32;102473.38;;;5.78;55.64
46211;BME280;52144;48.040;-1.594;2023-02-28T09:51:09;102478.69;;;5.79;54.16
46211;BME280;52144;48.040;-1.594;2023-02-28T09:53:40;102476.91;;;5.77;54.22
46211;BME280;52144;48.040;-1.594;2023-02-28T09:56:19;102474.25;;;5.75;53.86
46211;BME280;52144;48.040;-1.594;2023-02-28T09:58:54;102477.00;;;6.14;54.58
46211;BME280;52144;48.040;-1.594;2023-02-28T10:01:27;102476.13;;;5.96;53.39
46211;BME280;52144;48.040;-1.594;2023-02-28T10:04:03;102479.66;;;6.15;54.16
46211;BME280;52144;48.040;-1.594;2023-02-28T10:06:40;102482.22;;;5.72;52.89
46211;BME280;52144;48.040;-1.594;2023-02-28T10:09:17;102485.81;;;6.33;52.74
46211;BME280;52144;48.040;-1.594;2023-02-28T10:11:47;102485.81;;;6.53;52.32
46211;BME280;52144;48.040;-1.594;2023-02-28T10:14:21;102472.53;;;6.87;52.14
46211;BME280;52144;48.040;-1.594;2023-02-28T10:16:51;102470.81;;;6.38;50.95
46211;BME280;52144;48.040;-1.594;2023-02-28T10:19:25;102477.88;;;6.20;50.73
46211;BME280;52144;48.040;-1.594;2023-02-28T10:22:00;102475.22;;;6.34;49.42
46211;BME280;52144;48.040;-1.594;2023-02-28T10:24:32;102470.81;;;6.36;50.18
46211;BME280;52144;48.040;-1.594;2023-02-28T10:27:13;102465.41;;;6.99;49.39
46211;BME280;52144;48.040;-1.594;2023-02-28T10:29:43;102461.88;;;6.97;48.81
46211;BME280;52144;48.040;-1.594;2023-02-28T10:32:15;102459.31;;;6.74;48.89
46211;BME280;52144;48.040;-1.594;2023-02-28T10:34:50;102460.16;;;6.84;49.22
46211;BME280;52144;48.040;-1.594;2023-02-28T10:37:19;102457.53;;;6.67;48.35
46211;BME280;52144;48.040;-1.594;2023-02-28T10:39:47;102464.53;;;6.91;49.06
46211;BME280;52144;48.040;-1.594;2023-02-28T10:42:21;102454.81;;;6.98;49.04
46211;BME280;52144;48.040;-1.594;2023-02-28T10:45:06;102459.09;;;7.28;49.43
46211;BME280;52144;48.040;-1.594;2023-02-28T10:47:34;102457.31;;;7.38;49.54
46211;BME280;52144;48.040;-1.594;2023-02-28T10:53:35;102448.53;;;7.23;49.54
46211;BME280;52144;48.040;-1.594;2023-02-28T10:56:24;102438.91;;;7.01;49.39
46211;BME280;52144;48.040;-1.594;2023-02-28T10:58:54;102452.94;;;7.26;49.17
46211;BME280;52144;48.040;-1.594;2023-02-28T11:01:26;102441.63;;;6.82;48.36
46211;BME280;52144;48.040;-1.594;2023-02-28T11:04:01;102455.78;;;6.66;48.14
46211;BME280;52144;48.040;-1.594;2023-02-28T11:06:30;102457.47;;;7.01;47.54
46211;BME280;52144;48.040;-1.594;2023-02-28T11:09:03;102445.13;;;6.92;47.12
46211;BME280;52144;48.040;-1.594;2023-02-28T11:11:42;102444.03;;;7.39;47.52
46211;BME280;52144;48.040;-1.594;2023-02-28T11:14:18;102444.50;;;8.01;47.66
46211;BME280;52144;48.040;-1.594;2023-02-28T11:16:47;102440.50;;;7.37;46.80
46211;BME280;52144;48.040;-1.594;2023-02-28T11:19:19;102438.75;;;7.30;47.61
46211;BME280;52144;48.040;-1.594;2023-02-28T11:21:54;102446.66;;;7.47;46.62
46211;BME280;52144;48.040;-1.594;2023-02-28T11:24:27;102430.56;;;7.75;46.82
46211;BME280;52144;48.040;-1.594;2023-02-28T11:26:56;102416.25;;;7.94;47.47
46211;BME280;52144;48.040;-1.594;2023-02-28T11:29:25;102413.75;;;7.71;46.56
46211;BME280;52144;48.040;-1.594;2023-02-28T11:32:12;102410.09;;;7.92;46.75
46211;BME280;52144;48.040;-1.594;2023-02-28T11:34:41;102407.44;;;7.91;47.03
46211;BME280;52144;48.040;-1.594;2023-02-28T11:37:12;102396.19;;;7.59;46.70
46211;BME280;52144;48.040;-1.594;2023-02-28T11:39:42;102397.13;;;7.48;46.41
46211;BME280;52144;48.040;-1.594;2023-02-28T11:42:31;102388.03;;;7.79;46.24
46211;BME280;52144;48.040;-1.594;2023-02-28T11:45:13;102368.44;;;8.00;46.33
46211;BME280;52144;48.040;-1.594;2023-02-28T11:47:48;102378.00;;;8.18;46.32
46211;BME280;52144;48.040;-1.594;2023-02-28T11:50:25;102364.91;;;7.98;46.07
46211;BME280;52144;48.040;-1.594;2023-02-28T11:52:56;102365.78;;;7.97;46.52
46211;BME280;52144;48.040;-1.594;2023-02-28T11:55:27;102363.19;;;7.93;45.86
46211;BME280;52144;48.040;-1.594;2023-02-28T11:58:27;102355.41;;;7.70;46.18
46211;BME280;52144;48.040;-1.594;2023-02-28T12:01:04;102347.00;;;8.19;46.39
46211;BME280;52144;48.040;-1.594;2023-02-28T12:03:42;102353.84;;;8.44;46.27
46211;BME280;52144;48.040;-1.594;2023-02-28T12:06:18;102355.56;;;8.52;46.47
46211;BME280;52144;48.040;-1.594;2023-02-28T12:08:53;102335.97;;;8.60;46.59
46211;BME280;52144;48.040;-1.594;2023-02-28T12:11:36;102335.28;;;8.40;45.88
46211;BME280;52144;48.040;-1.594;2023-02-28T12:14:32;102331.09;;;8.95;46.25
46211;BME280;52144;48.040;-1.594;2023-02-28T12:17:19;102321.28;;;8.24;46.68
46211;BME280;52144;48.040;-1.594;2023-02-28T12:19:57;102326.88;;;8.78;47.36
46211;BME280;52144;48.040;-1.594;2023-02-28T12:22:30;102324.28;;;8.75;46.31
46211;BME280;52144;48.040;-1.594;2023-02-28T12:25:21;102309.22;;;8.74;46.04
46211;BME280;52144;48.040;-1.594;2023-02-28T12:27:51;102313.50;;;8.88;46.48
46211;BME280;52144;48.040;-1.594;2023-02-28T12:30:22;102318.53;;;9.06;46.76
46211;BME280;52144;48.040;-1.594;2023-02-28T12:32:55;102313.88;;;8.57;46.39
46211;BME280;52144;48.040;-1.594;2023-02-28T12:35:27;102318.63;;;9.00;47.17
46211;BME280;52144;48.040;-1.594;2023-02-28T12:38:04;102298.75;;;9.26;46.35
46211;BME280;52144;48.040;-1.594;2023-02-28T12:40:44;102293.44;;;8.62;45.87
46211;BME280;52144;48.040;-1.594;2023-02-28T12:43:16;102299.16;;;8.98;47.12
46211;BME280;52144;48.040;-1.594;2023-02-28T12:45:48;102283.81;;;8.52;47.11
46211;BME280;52144;48.040;-1.594;2023-02-28T12:48:20;102289.03;;;9.24;47.49
46211;BME280;52144;48.040;-1.594;2023-02-28T12:50:50;102299.28;;;9.49;47.25
46211;BME280;52144;48.040;-1.594;2023-02-28T12:53:23;102283.13;;;9.60;46.76
46211;BME280;52144;48.040;-1.594;2023-02-28T12:56:01;102278.88;;;8.91;46.98
46211;BME280;52144;48.040;-1.594;2023-02-28T12:58:36;102269.44;;;9.29;47.01
46211;BME280;52144;48.040;-1.594;2023-02-28T13:04:11;102271.72;;;8.94;47.55
46211;BME280;52144;48.040;-1.594;2023-02-28T13:06:56;102258.44;;;8.94;47.72
46211;BME280;52144;48.040;-1.594;2023-02-28T13:09:27;102257.56;;;8.94;48.23
46211;BME280;52144;48.040;-1.594;2023-02-28T13:11:56;102252.19;;;8.97;47.91
46211;BME280;52144;48.040;-1.594;2023-02-28T13:14:29;102248.19;;;9.26;48.29
46211;BME280;52144;48.040;-1.594;2023-02-28T13:17:03;102240.44;;;9.64;48.17
46211;BME280;52144;48.040;-1.594;2023-02-28T13:19:39;102233.91;;;9.33;47.56
46211;BME280;52144;48.040;-1.594;2023-02-28T13:22:17;102232.19;;;9.81;48.82